sensor_id;sensor_type;location;lat;lon;timestamp;P1;durP1;ratioP1;P2;durP2;ratioP2
18411;SDS011;27097;51.738;19.472;2023-05-14T00:02:06;16.00;;;8.00;;
18411;SDS011;27097;51.738;19.472;2023-05-14T00:04:33;13.82;;;8.15;;
18411;SDS011;27097;51.738;19.472;2023-05-14T00:06:59;18.00;;;8.30;;
18411;SDS011;27097;51.738;19.472;2023-05-14T00:09:26;16.48;;;8.48;;
18411;SDS011;27097;51.738;19.472;2023-05-14T00:11:54;16.38;;;7.90;;
18411;SDS011;27097;51.738;19.472;2023-05-14T00:14:21;14.35;;;7.88;;
18411;SDS011;27097;51.738;19.472;2023-05-14T00:16:48;14.90;;;7.93;;
18411;SDS011;27097;51.738;19.472;2023-05-14T00:19:16;12.77;;;7.93;;
18411;SDS011;27097;51.738;19.472;2023-05-14T00:21:43;13.65;;;7.60;;
18411;SDS011;27097;51.738;19.472;2023-05-14T00:24:10;14.65;;;8.02;;
18411;SDS011;27097;51.738;19.472;2023-05-14T00:26:36;15.95;;;8.20;;
18411;SDS011;27097;51.738;19.472;2023-05-14T00:29:03;16.63;;;7.68;;
18411;SDS011;27097;51.738;19.472;2023-05-14T00:31:30;14.20;;;7.88;;
18411;SDS011;27097;51.738;19.472;2023-05-14T00:33:57;13.68;;;7.82;;
18411;SDS011;27097;51.738;19.472;2023-05-14T00:36:25;13.18;;;7.63;;
18411;SDS011;27097;51.738;19.472;2023-05-14T00:38:52;15.35;;;7.40;;
18411;SDS011;27097;51.738;19.472;2023-05-14T00:41:19;16.20;;;7.85;;
18411;SDS011;27097;51.738;19.472;2023-05-14T00:43:45;14.45;;;7.25;;
18411;SDS011;27097;51.738;19.472;2023-05-14T00:46:12;14.63;;;7.47;;
18411;SDS011;27097;51.738;19.472;2023-05-14T00:48:40;13.30;;;7.35;;
18411;SDS011;27097;51.738;19.472;2023-05-14T00:51:07;11.55;;;7.40;;
18411;SDS011;27097;51.738;19.472;2023-05-14T00:53:35;11.60;;;7.18;;
18411;SDS011;27097;51.738;19.472;2023-05-14T00:56:02;11.32;;;7.32;;
18411;SDS011;27097;51.738;19.472;2023-05-14T00:58:30;14.15;;;7.65;;
18411;SDS011;27097;51.738;19.472;2023-05-14T01:00:57;12.98;;;7.20;;
18411;SDS011;27097;51.738;19.472;2023-05-14T01:03:24;15.02;;;7.65;;
18411;SDS011;27097;51.738;19.472;2023-05-14T01:05:52;15.27;;;7.40;;
18411;SDS011;27097;51.738;19.472;2023-05-14T01:08:26;12.27;;;7.22;;
18411;SDS011;27097;51.738;19.472;2023-05-14T01:11:03;13.55;;;7.18;;
18411;SDS011;27097;51.738;19.472;2023-05-14T01:13:38;10.95;;;6.80;;
18411;SDS011;27097;51.738;19.472;2023-05-14T01:16:11;20.75;;;7.22;;
18411;SDS011;27097;51.738;19.472;2023-05-14T01:18:39;14.18;;;6.80;;
18411;SDS011;27097;51.738;19.472;2023-05-14T01:21:17;15.82;;;7.03;;
18411;SDS011;27097;51.738;19.472;2023-05-14T01:24:01;12.75;;;6.70;;
18411;SDS011;27097;51.738;19.472;2023-05-14T01:26:28;14.18;;;6.88;;
18411;SDS011;27097;51.738;19.472;2023-05-14T01:28:55;14.75;;;6.82;;
18411;SDS011;27097;51.738;19.472;2023-05-14T01:31:33;14.65;;;6.90;;
18411;SDS011;27097;51.738;19.472;2023-05-14T01:34:03;10.57;;;6.53;;
18411;SDS011;27097;51.738;19.472;2023-05-14T01:36:32;13.90;;;6.47;;
18411;SDS011;27097;51.738;19.472;2023-05-14T01:39:01;10.88;;;6.80;;
18411;SDS011;27097;51.738;19.472;2023-05-14T01:41:29;10.65;;;6.80;;
18411;SDS011;27097;51.738;19.472;2023-05-14T01:43:57;12.85;;;6.68;;
18411;SDS011;27097;51.738;19.472;2023-05-14T01:46:23;11.68;;;6.65;;
18411;SDS011;27097;51.738;19.472;2023-05-14T01:48:50;14.30;;;6.85;;
18411;SDS011;27097;51.738;19.472;2023-05-14T01:51:17;13.25;;;6.95;;
18411;SDS011;27097;51.738;19.472;2023-05-14T01:53:44;12.25;;;7.03;;
18411;SDS011;27097;51.738;19.472;2023-05-14T01:56:12;12.88;;;6.85;;
18411;SDS011;27097;51.738;19.472;2023-05-14T01:58:39;15.48;;;6.50;;
18411;SDS011;27097;51.738;19.472;2023-05-14T02:01:05;12.10;;;6.65;;
18411;SDS011;27097;51.738;19.472;2023-05-14T02:03:32;10.40;;;6.50;;
18411;SDS011;27097;51.738;19.472;2023-05-14T02:05:59;10.85;;;6.75;;
18411;SDS011;27097;51.738;19.472;2023-05-14T02:08:26;11.43;;;7.00;;
18411;SDS011;27097;51.738;19.472;2023-05-14T02:10:53;10.88;;;6.80;;
18411;SDS011;27097;51.738;19.472;2023-05-14T02:13:21;11.00;;;6.10;;
18411;SDS011;27097;51.738;19.472;2023-05-14T02:15:48;9.70;;;6.43;;
18411;SDS011;27097;51.738;19.472;2023-05-14T02:18:15;11.20;;;6.40;;
18411;SDS011;27097;51.738;19.472;2023-05-14T02:20:41;13.70;;;6.43;;
18411;SDS011;27097;51.738;19.472;2023-05-14T02:23:09;10.40;;;6.63;;
18411;SDS011;27097;51.738;19.472;2023-05-14T02:25:35;14.77;;;6.55;;
18411;SDS011;27097;51.738;19.472;2023-05-14T02:28:03;10.18;;;6.38;;
18411;SDS011;27097;51.738;19.472;2023-05-14T02:30:31;11.00;;;6.43;;
18411;SDS011;27097;51.738;19.472;2023-05-14T02:32:58;11.25;;;5.93;;
18411;SDS011;27097;51.738;19.472;2023-05-14T02:35:25;10.68;;;6.65;;
18411;SDS011;27097;51.738;19.472;2023-05-14T02:37:52;13.02;;;6.60;;
18411;SDS011;27097;51.738;19.472;2023-05-14T02:40:18;11.60;;;6.25;;
18411;SDS011;27097;51.738;19.472;2023-05-14T02:42:45;13.07;;;6.30;;
18411;SDS011;27097;51.738;19.472;2023-05-14T02:45:12;10.43;;;6.60;;
18411;SDS011;27097;51.738;19.472;2023-05-14T02:47:40;15.18;;;6.47;;
18411;SDS011;27097;51.738;19.472;2023-05-14T02:50:07;10.57;;;6.00;;
18411;SDS011;27097;51.738;19.472;2023-05-14T02:52:35;10.13;;;6.57;;
18411;SDS011;27097;51.738;19.472;2023-05-14T02:55:02;13.90;;;6.45;;
18411;SDS011;27097;51.738;19.472;2023-05-14T02:57:29;12.80;;;6.05;;
18411;SDS011;27097;51.738;19.472;2023-05-14T02:59:56;10.60;;;5.85;;
18411;SDS011;27097;51.738;19.472;2023-05-14T03:02:23;12.90;;;6.13;;
18411;SDS011;27097;51.738;19.472;2023-05-14T03:04:51;10.55;;;6.10;;
18411;SDS011;27097;51.738;19.472;2023-05-14T03:07:17;12.32;;;5.70;;
18411;SDS011;27097;51.738;19.472;2023-05-14T03:09:44;8.75;;;6.03;;
18411;SDS011;27097;51.738;19.472;2023-05-14T03:12:11;12.35;;;6.20;;
18411;SDS011;27097;51.738;19.472;2023-05-14T03:14:38;8.38;;;5.53;;
18411;SDS011;27097;51.738;19.472;2023-05-14T03:17:05;10.07;;;6.13;;
18411;SDS011;27097;51.738;19.472;2023-05-14T03:19:32;10.77;;;6.20;;
18411;SDS011;27097;51.738;19.472;2023-05-14T03:22:00;10.38;;;6.18;;
18411;SDS011;27097;51.738;19.472;2023-05-14T03:24:26;11.18;;;6.57;;
18411;SDS011;27097;51.738;19.472;2023-05-14T03:26:53;12.50;;;6.10;;
18411;SDS011;27097;51.738;19.472;2023-05-14T03:29:20;10.82;;;5.88;;
18411;SDS011;27097;51.738;19.472;2023-05-14T03:31:47;12.20;;;5.80;;
18411;SDS011;27097;51.738;19.472;2023-05-14T03:34:14;16.00;;;5.88;;
18411;SDS011;27097;51.738;19.472;2023-05-14T03:36:41;14.93;;;5.85;;
18411;SDS011;27097;51.738;19.472;2023-05-14T03:39:09;8.40;;;5.18;;
18411;SDS011;27097;51.738;19.472;2023-05-14T03:41:39;10.07;;;5.55;;
18411;SDS011;27097;51.738;19.472;2023-05-14T03:44:06;11.68;;;5.40;;
18411;SDS011;27097;51.738;19.472;2023-05-14T03:46:33;12.43;;;6.03;;
18411;SDS011;27097;51.738;19.472;2023-05-14T03:48:59;11.63;;;5.20;;
18411;SDS011;27097;51.738;19.472;2023-05-14T03:51:26;11.48;;;5.90;;
18411;SDS011;27097;51.738;19.472;2023-05-14T03:53:53;11.82;;;5.85;;
18411;SDS011;27097;51.738;19.472;2023-05-14T03:56:21;9.25;;;5.88;;
18411;SDS011;27097;51.738;19.472;2023-05-14T03:58:48;11.10;;;5.75;;
18411;SDS011;27097;51.738;19.472;2023-05-14T04:01:15;9.82;;;5.18;;
18411;SDS011;27097;51.738;19.472;2023-05-14T04:03:42;9.90;;;5.50;;
18411;SDS011;27097;51.738;19.472;2023-05-14T04:06:09;12.82;;;5.72;;
18411;SDS011;27097;51.738;19.472;2023-05-14T04:08:36;12.57;;;5.40;;
18411;SDS011;27097;51.738;19.472;2023-05-14T04:11:03;9.68;;;5.78;;
18411;SDS011;27097;51.738;19.472;2023-05-14T04:13:31;9.35;;;5.40;;
18411;SDS011;27097;51.738;19.472;2023-05-14T04:15:58;8.00;;;5.47;;
18411;SDS011;27097;51.738;19.472;2023-05-14T04:18:25;12.30;;;6.05;;
18411;SDS011;27097;51.738;19.472;2023-05-14T04:20:51;10.05;;;5.78;;
18411;SDS011;27097;51.738;19.472;2023-05-14T04:23:18;9.68;;;5.22;;
18411;SDS011;27097;51.738;19.472;2023-05-14T04:25:45;9.50;;;5.72;;
18411;SDS011;27097;51.738;19.472;2023-05-14T04:28:12;9.55;;;5.53;;
18411;SDS011;27097;51.738;19.472;2023-05-14T04:30:40;8.40;;;5.28;;
18411;SDS011;27097;51.738;19.472;2023-05-14T04:33:07;7.07;;;5.30;;
18411;SDS011;27097;51.738;19.472;2023-05-14T04:35:34;9.18;;;5.45;;
18411;SDS011;27097;51.738;19.472;2023-05-14T04:38:01;10.32;;;5.40;;
18411;SDS011;27097;51.738;19.472;2023-05-14T04:40:28;8.70;;;5.60;;
18411;SDS011;27097;51.738;19.472;2023-05-14T04:42:55;7.13;;;5.15;;
18411;SDS011;27097;51.738;19.472;2023-05-14T04:45:22;9.00;;;5.43;;
18411;SDS011;27097;51.738;19.472;2023-05-14T04:47:50;9.10;;;5.28;;
18411;SDS011;27097;51.738;19.472;2023-05-14T04:50:17;8.50;;;5.35;;
18411;SDS011;27097;51.738;19.472;2023-05-14T04:52:44;13.05;;;5.40;;
18411;SDS011;27097;51.738;19.472;2023-05-14T04:55:10;9.93;;;5.38;;
18411;SDS011;27097;51.738;19.472;2023-05-14T04:57:37;11.20;;;5.25;;
18411;SDS011;27097;51.738;19.472;2023-05-14T05:00:04;10.90;;;5.28;;
18411;SDS011;27097;51.738;19.472;2023-05-14T05:02:34;7.53;;;4.85;;
18411;SDS011;27097;51.738;19.472;2023-05-14T05:05:02;10.20;;;5.20;;
18411;SDS011;27097;51.738;19.472;2023-05-14T05:07:29;13.38;;;5.32;;
18411;SDS011;27097;51.738;19.472;2023-05-14T05:09:56;9.45;;;5.43;;
18411;SDS011;27097;51.738;19.472;2023-05-14T05:12:24;14.50;;;5.50;;
18411;SDS011;27097;51.738;19.472;2023-05-14T05:14:54;12.98;;;5.20;;
18411;SDS011;27097;51.738;19.472;2023-05-14T05:17:21;11.40;;;5.05;;
18411;SDS011;27097;51.738;19.472;2023-05-14T05:19:47;8.40;;;5.30;;
18411;SDS011;27097;51.738;19.472;2023-05-14T05:22:16;10.38;;;5.20;;
18411;SDS011;27097;51.738;19.472;2023-05-14T05:24:43;10.52;;;5.00;;
18411;SDS011;27097;51.738;19.472;2023-05-14T05:27:10;12.75;;;5.25;;
18411;SDS011;27097;51.738;19.472;2023-05-14T05:29:36;10.75;;;5.25;;
18411;SDS011;27097;51.738;19.472;2023-05-14T05:32:04;10.00;;;5.15;;
18411;SDS011;27097;51.738;19.472;2023-05-14T05:34:31;8.30;;;5.60;;
18411;SDS011;27097;51.738;19.472;2023-05-14T05:36:59;9.43;;;5.32;;
18411;SDS011;27097;51.738;19.472;2023-05-14T05:39:27;8.90;;;4.90;;
18411;SDS011;27097;51.738;19.472;2023-05-14T05:41:58;13.57;;;5.30;;
18411;SDS011;27097;51.738;19.472;2023-05-14T05:44:25;9.13;;;4.80;;
18411;SDS011;27097;51.738;19.472;2023-05-14T05:46:52;12.73;;;4.85;;
18411;SDS011;27097;51.738;19.472;2023-05-14T05:49:21;12.25;;;4.65;;
18411;SDS011;27097;51.738;19.472;2023-05-14T05:51:47;12.65;;;5.22;;
18411;SDS011;27097;51.738;19.472;2023-05-14T05:54:14;16.48;;;5.20;;
18411;SDS011;27097;51.738;19.472;2023-05-14T05:56:42;12.77;;;5.20;;
18411;SDS011;27097;51.738;19.472;2023-05-14T05:59:09;21.10;;;5.82;;
18411;SDS011;27097;51.738;19.472;2023-05-14T06:01:36;10.18;;;5.47;;
18411;SDS011;27097;51.738;19.472;2023-05-14T06:04:04;16.83;;;5.40;;
18411;SDS011;27097;51.738;19.472;2023-05-14T06:06:31;17.58;;;5.55;;
18411;SDS011;27097;51.738;19.472;2023-05-14T06:08:58;10.20;;;5.32;;
18411;SDS011;27097;51.738;19.472;2023-05-14T06:11:26;10.95;;;5.57;;
18411;SDS011;27097;51.738;19.472;2023-05-14T06:13:54;13.07;;;5.72;;
18411;SDS011;27097;51.738;19.472;2023-05-14T06:16:21;13.60;;;5.60;;
18411;SDS011;27097;51.738;19.472;2023-05-14T06:18:48;12.07;;;5.80;;
18411;SDS011;27097;51.738;19.472;2023-05-14T06:21:16;13.57;;;5.68;;
18411;SDS011;27097;51.738;19.472;2023-05-14T06:23:43;13.90;;;5.90;;
18411;SDS011;27097;51.738;19.472;2023-05-14T06:26:10;10.93;;;5.30;;
18411;SDS011;27097;51.738;19.472;2023-05-14T06:28:37;20.40;;;5.72;;
18411;SDS011;27097;51.738;19.472;2023-05-14T06:31:05;11.35;;;5.75;;
18411;SDS011;27097;51.738;19.472;2023-05-14T06:33:32;11.60;;;5.72;;
18411;SDS011;27097;51.738;19.472;2023-05-14T06:35:59;8.98;;;5.40;;
18411;SDS011;27097;51.738;19.472;2023-05-14T06:38:29;10.60;;;6.00;;
18411;SDS011;27097;51.738;19.472;2023-05-14T06:40:56;12.18;;;5.78;;
18411;SDS011;27097;51.738;19.472;2023-05-14T06:43:23;12.18;;;5.90;;
18411;SDS011;27097;51.738;19.472;2023-05-14T06:45:50;11.35;;;5.97;;
18411;SDS011;27097;51.738;19.472;2023-05-14T06:48:18;14.82;;;6.07;;
18411;SDS011;27097;51.738;19.472;2023-05-14T06:50:46;22.25;;;6.43;;
18411;SDS011;27097;51.738;19.472;2023-05-14T06:53:14;17.98;;;5.70;;
18411;SDS011;27097;51.738;19.472;2023-05-14T06:55:42;13.45;;;5.80;;
18411;SDS011;27097;51.738;19.472;2023-05-14T06:58:09;14.23;;;5.53;;
18411;SDS011;27097;51.738;19.472;2023-05-14T07:00:35;16.27;;;5.72;;
18411;SDS011;27097;51.738;19.472;2023-05-14T07:03:02;26.25;;;5.93;;
18411;SDS011;27097;51.738;19.472;2023-05-14T07:05:30;16.02;;;5.50;;
18411;SDS011;27097;51.738;19.472;2023-05-14T07:07:57;17.17;;;5.65;;
18411;SDS011;27097;51.738;19.472;2023-05-14T07:10:24;15.00;;;5.77;;
18411;SDS011;27097;51.738;19.472;2023-05-14T07:12:51;30.00;;;5.32;;
18411;SDS011;27097;51.738;19.472;2023-05-14T07:15:18;17.00;;;5.43;;
18411;SDS011;27097;51.738;19.472;2023-05-14T07:17:45;17.48;;;5.20;;
18411;SDS011;27097;51.738;19.472;2023-05-14T07:20:12;18.23;;;5.80;;
18411;SDS011;27097;51.738;19.472;2023-05-14T07:22:40;19.15;;;5.72;;
18411;SDS011;27097;51.738;19.472;2023-05-14T07:25:07;14.75;;;5.47;;
18411;SDS011;27097;51.738;19.472;2023-05-14T07:27:34;17.23;;;5.28;;
18411;SDS011;27097;51.738;19.472;2023-05-14T07:30:01;17.63;;;5.22;;
18411;SDS011;27097;51.738;19.472;2023-05-14T07:32:28;18.52;;;5.10;;
18411;SDS011;27097;51.738;19.472;2023-05-14T07:34:55;22.05;;;4.90;;
18411;SDS011;27097;51.738;19.472;2023-05-14T07:37:22;17.45;;;5.45;;
18411;SDS011;27097;51.738;19.472;2023-05-14T07:39:51;24.00;;;5.30;;
18411;SDS011;27097;51.738;19.472;2023-05-14T07:42:18;14.20;;;4.75;;
18411;SDS011;27097;51.738;19.472;2023-05-14T07:44:45;14.60;;;4.57;;
18411;SDS011;27097;51.738;19.472;2023-05-14T07:47:12;27.17;;;5.28;;
18411;SDS011;27097;51.738;19.472;2023-05-14T07:49:38;22.10;;;5.70;;
18411;SDS011;27097;51.738;19.472;2023-05-14T07:52:05;22.27;;;5.30;;
18411;SDS011;27097;51.738;19.472;2023-05-14T07:54:32;15.27;;;5.05;;
18411;SDS011;27097;51.738;19.472;2023-05-14T07:57:00;22.10;;;5.63;;
18411;SDS011;27097;51.738;19.472;2023-05-14T07:59:27;16.45;;;4.82;;
18411;SDS011;27097;51.738;19.472;2023-05-14T08:01:54;19.77;;;5.07;;
18411;SDS011;27097;51.738;19.472;2023-05-14T08:04:21;18.48;;;4.70;;
18411;SDS011;27097;51.738;19.472;2023-05-14T08:06:48;14.57;;;5.55;;
18411;SDS011;27097;51.738;19.472;2023-05-14T08:09:15;14.57;;;4.55;;
18411;SDS011;27097;51.738;19.472;2023-05-14T08:11:42;19.95;;;5.45;;
18411;SDS011;27097;51.738;19.472;2023-05-14T08:14:10;13.88;;;4.70;;
18411;SDS011;27097;51.738;19.472;2023-05-14T08:16:37;13.00;;;4.57;;
18411;SDS011;27097;51.738;19.472;2023-05-14T08:19:04;15.07;;;4.35;;
18411;SDS011;27097;51.738;19.472;2023-05-14T08:21:31;15.93;;;4.70;;
18411;SDS011;27097;51.738;19.472;2023-05-14T08:23:58;20.15;;;4.53;;
18411;SDS011;27097;51.738;19.472;2023-05-14T08:26:25;11.50;;;4.75;;
18411;SDS011;27097;51.738;19.472;2023-05-14T08:28:51;12.13;;;4.18;;
18411;SDS011;27097;51.738;19.472;2023-05-14T08:31:20;13.40;;;4.70;;
18411;SDS011;27097;51.738;19.472;2023-05-14T08:33:47;15.57;;;4.68;;
18411;SDS011;27097;51.738;19.472;2023-05-14T08:36:13;9.93;;;4.40;;
18411;SDS011;27097;51.738;19.472;2023-05-14T08:38:40;13.50;;;4.53;;
18411;SDS011;27097;51.738;19.472;2023-05-14T08:41:08;13.18;;;4.18;;
18411;SDS011;27097;51.738;19.472;2023-05-14T08:43:37;14.02;;;4.78;;
18411;SDS011;27097;51.738;19.472;2023-05-14T08:46:14;14.23;;;5.03;;
18411;SDS011;27097;51.738;19.472;2023-05-14T08:48:45;21.67;;;4.68;;
18411;SDS011;27097;51.738;19.472;2023-05-14T08:51:16;16.50;;;4.80;;
18411;SDS011;27097;51.738;19.472;2023-05-14T08:53:43;14.68;;;4.35;;
18411;SDS011;27097;51.738;19.472;2023-05-14T08:56:10;16.30;;;4.22;;
18411;SDS011;27097;51.738;19.472;2023-05-14T08:58:37;12.52;;;4.30;;
18411;SDS011;27097;51.738;19.472;2023-05-14T09:01:04;12.13;;;4.25;;
18411;SDS011;27097;51.738;19.472;2023-05-14T09:03:31;12.48;;;4.28;;
18411;SDS011;27097;51.738;19.472;2023-05-14T09:06:01;10.25;;;4.32;;
18411;SDS011;27097;51.738;19.472;2023-05-14T09:08:29;15.35;;;4.53;;
18411;SDS011;27097;51.738;19.472;2023-05-14T09:10:56;13.02;;;4.00;;
18411;SDS011;27097;51.738;19.472;2023-05-14T09:13:23;13.02;;;4.40;;
18411;SDS011;27097;51.738;19.472;2023-05-14T09:15:50;9.15;;;4.03;;
18411;SDS011;27097;51.738;19.472;2023-05-14T09:18:17;12.90;;;4.35;;
18411;SDS011;27097;51.738;19.472;2023-05-14T09:20:45;13.98;;;4.68;;
18411;SDS011;27097;51.738;19.472;2023-05-14T09:23:14;13.55;;;4.30;;
18411;SDS011;27097;51.738;19.472;2023-05-14T09:25:41;14.43;;;4.30;;
18411;SDS011;27097;51.738;19.472;2023-05-14T09:28:08;12.52;;;4.07;;
18411;SDS011;27097;51.738;19.472;2023-05-14T09:30:35;19.83;;;4.97;;
18411;SDS011;27097;51.738;19.472;2023-05-14T09:33:02;18.80;;;4.53;;
18411;SDS011;27097;51.738;19.472;2023-05-14T09:35:31;19.67;;;3.97;;
18411;SDS011;27097;51.738;19.472;2023-05-14T09:37:58;21.08;;;4.15;;
18411;SDS011;27097;51.738;19.472;2023-05-14T09:40:26;10.43;;;3.92;;
18411;SDS011;27097;51.738;19.472;2023-05-14T09:42:53;10.82;;;3.95;;
18411;SDS011;27097;51.738;19.472;2023-05-14T09:45:21;11.02;;;4.10;;
18411;SDS011;27097;51.738;19.472;2023-05-14T09:47:48;14.10;;;3.90;;
18411;SDS011;27097;51.738;19.472;2023-05-14T09:50:15;9.73;;;3.58;;
18411;SDS011;27097;51.738;19.472;2023-05-14T09:52:42;9.32;;;3.47;;
18411;SDS011;27097;51.738;19.472;2023-05-14T09:55:09;8.77;;;3.70;;
18411;SDS011;27097;51.738;19.472;2023-05-14T09:57:37;9.40;;;4.22;;
18411;SDS011;27097;51.738;19.472;2023-05-14T10:00:05;9.90;;;3.80;;
18411;SDS011;27097;51.738;19.472;2023-05-14T10:02:34;10.05;;;4.53;;
18411;SDS011;27097;51.738;19.472;2023-05-14T10:05:04;12.80;;;4.50;;
18411;SDS011;27097;51.738;19.472;2023-05-14T10:07:34;7.63;;;3.75;;
18411;SDS011;27097;51.738;19.472;2023-05-14T10:10:06;6.90;;;3.80;;
18411;SDS011;27097;51.738;19.472;2023-05-14T10:12:37;9.48;;;3.95;;
18411;SDS011;27097;51.738;19.472;2023-05-14T10:15:11;11.73;;;3.95;;
18411;SDS011;27097;51.738;19.472;2023-05-14T10:17:46;10.25;;;3.80;;
18411;SDS011;27097;51.738;19.472;2023-05-14T10:20:19;9.07;;;3.70;;
18411;SDS011;27097;51.738;19.472;2023-05-14T10:22:48;6.40;;;3.65;;
18411;SDS011;27097;51.738;19.472;2023-05-14T10:25:15;6.38;;;3.53;;
18411;SDS011;27097;51.738;19.472;2023-05-14T10:27:43;7.35;;;3.70;;
18411;SDS011;27097;51.738;19.472;2023-05-14T10:30:11;11.43;;;3.85;;
18411;SDS011;27097;51.738;19.472;2023-05-14T10:32:38;10.50;;;3.60;;
18411;SDS011;27097;51.738;19.472;2023-05-14T10:35:14;7.63;;;3.28;;
18411;SDS011;27097;51.738;19.472;2023-05-14T10:37:42;7.40;;;3.22;;
18411;SDS011;27097;51.738;19.472;2023-05-14T10:40:10;7.72;;;3.28;;
18411;SDS011;27097;51.738;19.472;2023-05-14T10:42:38;13.88;;;3.10;;
18411;SDS011;27097;51.738;19.472;2023-05-14T10:45:10;9.80;;;3.40;;
18411;SDS011;27097;51.738;19.472;2023-05-14T10:47:42;5.78;;;3.08;;
18411;SDS011;27097;51.738;19.472;2023-05-14T10:50:11;7.28;;;3.33;;
18411;SDS011;27097;51.738;19.472;2023-05-14T10:52:39;5.28;;;3.10;;
18411;SDS011;27097;51.738;19.472;2023-05-14T10:55:08;5.28;;;2.92;;
18411;SDS011;27097;51.738;19.472;2023-05-14T10:57:38;6.85;;;3.20;;
18411;SDS011;27097;51.738;19.472;2023-05-14T11:00:07;5.60;;;2.88;;
18411;SDS011;27097;51.738;19.472;2023-05-14T11:02:38;8.75;;;2.80;;
18411;SDS011;27097;51.738;19.472;2023-05-14T11:05:07;9.80;;;2.85;;
18411;SDS011;27097;51.738;19.472;2023-05-14T11:07:38;4.55;;;2.53;;
18411;SDS011;27097;51.738;19.472;2023-05-14T11:10:07;8.07;;;2.88;;
18411;SDS011;27097;51.738;19.472;2023-05-14T11:12:35;5.97;;;2.65;;
18411;SDS011;27097;51.738;19.472;2023-05-14T11:15:04;6.50;;;2.90;;
18411;SDS011;27097;51.738;19.472;2023-05-14T11:17:35;6.35;;;2.50;;
18411;SDS011;27097;51.738;19.472;2023-05-14T11:20:02;8.68;;;2.58;;
18411;SDS011;27097;51.738;19.472;2023-05-14T11:22:30;9.50;;;3.08;;
18411;SDS011;27097;51.738;19.472;2023-05-14T11:24:57;7.60;;;2.72;;
18411;SDS011;27097;51.738;19.472;2023-05-14T11:27:24;4.90;;;2.42;;
18411;SDS011;27097;51.738;19.472;2023-05-14T11:29:51;10.27;;;2.75;;
18411;SDS011;27097;51.738;19.472;2023-05-14T11:32:20;8.05;;;2.50;;
18411;SDS011;27097;51.738;19.472;2023-05-14T11:34:48;5.15;;;2.80;;
18411;SDS011;27097;51.738;19.472;2023-05-14T11:37:15;6.32;;;2.28;;
18411;SDS011;27097;51.738;19.472;2023-05-14T11:39:46;3.65;;;2.25;;
18411;SDS011;27097;51.738;19.472;2023-05-14T11:42:14;9.57;;;2.10;;
18411;SDS011;27097;51.738;19.472;2023-05-14T11:44:42;5.03;;;2.10;;
18411;SDS011;27097;51.738;19.472;2023-05-14T11:47:10;8.52;;;2.20;;
18411;SDS011;27097;51.738;19.472;2023-05-14T11:49:37;4.97;;;1.80;;
18411;SDS011;27097;51.738;19.472;2023-05-14T11:52:06;7.07;;;2.22;;
18411;SDS011;27097;51.738;19.472;2023-05-14T11:54:35;4.40;;;2.20;;
18411;SDS011;27097;51.738;19.472;2023-05-14T11:57:06;6.05;;;2.15;;
18411;SDS011;27097;51.738;19.472;2023-05-14T11:59:34;5.38;;;2.20;;
18411;SDS011;27097;51.738;19.472;2023-05-14T12:02:01;10.38;;;2.17;;
18411;SDS011;27097;51.738;19.472;2023-05-14T12:04:29;3.88;;;2.13;;
18411;SDS011;27097;51.738;19.472;2023-05-14T12:06:56;11.15;;;2.60;;
18411;SDS011;27097;51.738;19.472;2023-05-14T12:09:26;5.72;;;1.90;;
18411;SDS011;27097;51.738;19.472;2023-05-14T12:11:53;3.92;;;1.88;;
18411;SDS011;27097;51.738;19.472;2023-05-14T12:14:21;6.40;;;2.10;;
18411;SDS011;27097;51.738;19.472;2023-05-14T12:16:48;6.20;;;1.90;;
18411;SDS011;27097;51.738;19.472;2023-05-14T12:19:16;6.22;;;1.92;;
18411;SDS011;27097;51.738;19.472;2023-05-14T12:21:44;3.17;;;1.65;;
18411;SDS011;27097;51.738;19.472;2023-05-14T12:24:15;2.80;;;1.70;;
18411;SDS011;27097;51.738;19.472;2023-05-14T12:26:44;6.38;;;2.10;;
18411;SDS011;27097;51.738;19.472;2023-05-14T12:29:12;8.32;;;3.00;;
18411;SDS011;27097;51.738;19.472;2023-05-14T12:31:43;4.90;;;2.03;;
18411;SDS011;27097;51.738;19.472;2023-05-14T12:34:11;11.65;;;2.42;;
18411;SDS011;27097;51.738;19.472;2023-05-14T12:36:38;7.28;;;2.45;;
18411;SDS011;27097;51.738;19.472;2023-05-14T12:39:04;12.02;;;2.20;;
18411;SDS011;27097;51.738;19.472;2023-05-14T12:41:32;10.25;;;2.40;;
18411;SDS011;27097;51.738;19.472;2023-05-14T12:44:01;10.93;;;2.40;;
18411;SDS011;27097;51.738;19.472;2023-05-14T12:46:28;8.75;;;1.90;;
18411;SDS011;27097;51.738;19.472;2023-05-14T12:48:55;6.32;;;2.30;;
18411;SDS011;27097;51.738;19.472;2023-05-14T12:51:22;6.85;;;2.35;;
18411;SDS011;27097;51.738;19.472;2023-05-14T12:53:49;3.47;;;1.90;;
18411;SDS011;27097;51.738;19.472;2023-05-14T12:56:18;3.78;;;1.83;;
18411;SDS011;27097;51.738;19.472;2023-05-14T12:58:45;8.07;;;2.28;;
18411;SDS011;27097;51.738;19.472;2023-05-14T13:01:14;10.38;;;1.70;;
18411;SDS011;27097;51.738;19.472;2023-05-14T13:03:41;13.43;;;2.45;;
18411;SDS011;27097;51.738;19.472;2023-05-14T13:06:08;6.47;;;2.20;;
18411;SDS011;27097;51.738;19.472;2023-05-14T13:08:34;7.70;;;2.08;;
18411;SDS011;27097;51.738;19.472;2023-05-14T13:11:01;6.68;;;2.00;;
18411;SDS011;27097;51.738;19.472;2023-05-14T13:13:28;4.47;;;2.10;;
18411;SDS011;27097;51.738;19.472;2023-05-14T13:15:55;6.93;;;1.80;;
18411;SDS011;27097;51.738;19.472;2023-05-14T13:18:23;3.10;;;1.77;;
18411;SDS011;27097;51.738;19.472;2023-05-14T13:20:51;2.92;;;1.70;;
18411;SDS011;27097;51.738;19.472;2023-05-14T13:23:19;3.58;;;1.95;;
18411;SDS011;27097;51.738;19.472;2023-05-14T13:25:45;2.47;;;1.77;;
18411;SDS011;27097;51.738;19.472;2023-05-14T13:28:12;4.82;;;1.98;;
18411;SDS011;27097;51.738;19.472;2023-05-14T13:30:39;3.15;;;1.75;;
18411;SDS011;27097;51.738;19.472;2023-05-14T13:33:06;4.93;;;1.83;;
18411;SDS011;27097;51.738;19.472;2023-05-14T13:35:34;2.80;;;1.75;;
18411;SDS011;27097;51.738;19.472;2023-05-14T13:38:01;3.50;;;1.65;;
18411;SDS011;27097;51.738;19.472;2023-05-14T13:40:28;4.43;;;2.05;;
18411;SDS011;27097;51.738;19.472;2023-05-14T13:42:55;6.75;;;1.88;;
18411;SDS011;27097;51.738;19.472;2023-05-14T13:45:22;3.65;;;2.00;;
18411;SDS011;27097;51.738;19.472;2023-05-14T13:47:48;4.53;;;1.83;;
18411;SDS011;27097;51.738;19.472;2023-05-14T13:50:15;2.53;;;1.90;;
18411;SDS011;27097;51.738;19.472;2023-05-14T13:52:43;2.72;;;1.80;;
18411;SDS011;27097;51.738;19.472;2023-05-14T13:55:10;4.93;;;1.80;;
18411;SDS011;27097;51.738;19.472;2023-05-14T13:57:37;3.78;;;1.90;;
18411;SDS011;27097;51.738;19.472;2023-05-14T14:00:06;4.10;;;2.00;;
18411;SDS011;27097;51.738;19.472;2023-05-14T14:02:33;5.57;;;1.90;;
18411;SDS011;27097;51.738;19.472;2023-05-14T14:05:00;6.68;;;1.95;;
18411;SDS011;27097;51.738;19.472;2023-05-14T14:07:27;7.47;;;2.08;;
18411;SDS011;27097;51.738;19.472;2023-05-14T14:09:55;7.30;;;2.03;;
18411;SDS011;27097;51.738;19.472;2023-05-14T14:12:22;5.15;;;2.00;;
18411;SDS011;27097;51.738;19.472;2023-05-14T14:14:50;4.32;;;1.80;;
18411;SDS011;27097;51.738;19.472;2023-05-14T14:17:17;9.57;;;2.47;;
18411;SDS011;27097;51.738;19.472;2023-05-14T14:19:44;6.10;;;2.13;;
18411;SDS011;27097;51.738;19.472;2023-05-14T14:22:11;6.35;;;2.40;;
18411;SDS011;27097;51.738;19.472;2023-05-14T14:24:41;6.72;;;1.95;;
18411;SDS011;27097;51.738;19.472;2023-05-14T14:27:09;3.72;;;2.03;;
18411;SDS011;27097;51.738;19.472;2023-05-14T14:29:36;4.32;;;2.17;;